Jennie K — WDE9719 — position and weather

sailwx.info

Track history (hours):
 
Tides and Currents Weather Stations Pressure Air Temp Water Temp Dewpoint Dewpoint Depression Visibility Wind Speed Wind Dir Waves Ship Positions

Jennie K

Owner: SCF Waxler Marine LLC, St Rose, LA. More information available from US FCC via Universal Licensing System and Coast Guard Vessel Documentation Center.

Last reported at 2017-Sep-27 19:26 UTC. Time now 2017-Nov-19 04:55 UTC.
Position N 38°52' W 090°33'.
Warning: this ship's position is 52 days out of date.

Length 65 m; draft 3.1 m.

Type: Tow > 200 m length. MMSI: 367420450.

Date/timePositionNaut miles runAvg speedWind from/ knotsBaromVisibWave heightAir tempDewpointWater temp
2017-Sep-27 19:26N 38°52' W 090°33'2 4.5
2017-Sep-27 19:00N 38°54' W 090°31'2 4.5
2017-Sep-27 18:31N 38°56' W 090°30'2 4.4
2017-Sep-27 18:01N 38°57' W 090°28'0 0.3
2017-Sep-27 17:30N 38°57' W 090°28'0 0.0
2017-Sep-27 17:01N 38°57' W 090°28'1 2.7
2017-Sep-27 16:31N 38°58' W 090°26'2 4.1
2017-Sep-27 16:01N 38°58' W 090°24'2 4.5
2017-Sep-27 15:30N 38°57' W 090°21'2 4.4
2017-Sep-27 15:01N 38°55' W 090°19'3 4.7
2017-Sep-27 14:24N 38°55' W 090°15'2 4.7
2017-Sep-27 13:59N 38°54' W 090°13'  
2017-Sep-24 07:14N 38°54' W 090°12'2 2.2
2017-Sep-24 06:16N 38°55' W 090°14'0 0.2
2017-Sep-24 03:58N 38°55' W 090°14'2 4.1
2017-Sep-24 03:31N 38°55' W 090°17'2 4.9
2017-Sep-24 03:00N 38°56' W 090°20'3 5.2
2017-Sep-24 02:31N 38°57' W 090°23'3 5.2
2017-Sep-24 02:01N 38°58' W 090°26'3 5.5
2017-Sep-24 01:31N 38°56' W 090°29'  
Track history (hours):
 
Tides and Currents Weather Stations Pressure Air Temp Water Temp Dewpoint Dewpoint Depression Visibility Wind Speed Wind Dir Waves Ship Positions

Jennie K

Owner: SCF Waxler Marine LLC, St Rose, LA. More information available from US FCC via Universal Licensing System and Coast Guard Vessel Documentation Center.

Last reported at 2017-Sep-27 19:26 UTC. Time now 2017-Nov-19 04:55 UTC.
Position N 38°52' W 090°33'.
Warning: this ship's position is 52 days out of date.

Length 65 m; draft 3.1 m.

Type: Tow > 200 m length. MMSI: 367420450.

Date/timePositionNaut miles runAvg speedWind from/ knotsBaromVisibWave heightAir tempDewpointWater temp
2017-Sep-27 19:26N 38°52' W 090°33'2 4.5
2017-Sep-27 19:00N 38°54' W 090°31'2 4.5
2017-Sep-27 18:31N 38°56' W 090°30'2 4.4
2017-Sep-27 18:01N 38°57' W 090°28'0 0.3
2017-Sep-27 17:30N 38°57' W 090°28'0 0.0
2017-Sep-27 17:01N 38°57' W 090°28'1 2.7
2017-Sep-27 16:31N 38°58' W 090°26'2 4.1
2017-Sep-27 16:01N 38°58' W 090°24'2 4.5
2017-Sep-27 15:30N 38°57' W 090°21'2 4.4
2017-Sep-27 15:01N 38°55' W 090°19'3 4.7
2017-Sep-27 14:24N 38°55' W 090°15'2 4.7
2017-Sep-27 13:59N 38°54' W 090°13'  
2017-Sep-24 07:14N 38°54' W 090°12'2 2.2
2017-Sep-24 06:16N 38°55' W 090°14'0 0.2
2017-Sep-24 03:58N 38°55' W 090°14'2 4.1
2017-Sep-24 03:31N 38°55' W 090°17'2 4.9
2017-Sep-24 03:00N 38°56' W 090°20'3 5.2
2017-Sep-24 02:31N 38°57' W 090°23'3 5.2
2017-Sep-24 02:01N 38°58' W 090°26'3 5.5
2017-Sep-24 01:31N 38°56' W 090°29'  

Dump ship's entire track history